Time;durP1;ratioP1;P1;durP2;ratioP2;P2;SDS_P1;SDS_P2;PMS_P1;PMS_P2;Temp;Humidity;BMP_temperature;BMP_pressure;BME280_temperature;BME280_humidity;BME280_pressure;Samples;Min_cycle;Max_cycle;Signal;HPM_P1;HPM_P2
2021/06/04 00:01:10;;;;;;;3.00;1.40;;;;;;;;;;5038892;28;20253;-66
2021/06/04 00:03:38;;;;;;;0.07;0.07;;;;;;;;;;5038439;28;20250;-68
2021/06/04 00:06:05;;;;;;;0.33;0.20;;;;;;;;;;5039252;28;20474;-64
2021/06/04 00:08:32;;;;;;;0.00;0.00;;;;;;;;;;5038790;28;20272;-63
2021/06/04 00:11:02;;;;;;;0.97;0.23;;;;;;;;;;5037906;28;20828;-65
2021/06/04 00:13:50;;;;;;;0.00;0.00;;;;;;;;;;5040027;28;20245;-64
2021/06/04 00:16:19;;;;;;;0.10;0.10;;;;;;;;;;5038468;28;20707;-64
2021/06/04 00:18:47;;;;;;;2.33;2.13;;;;;;;;;;5040510;28;20191;-64
2021/06/04 00:21:25;;;;;;;0.10;0.10;;;;;;;;;;5040377;28;20222;-63
2021/06/04 00:23:53;;;;;;;0.00;0.00;;;;;;;;;;5039002;28;20240;-63
2021/06/04 00:26:20;;;;;;;0.20;0.20;;;;;;;;;;5043172;28;20342;-64
2021/06/04 00:28:47;;;;;;;0.07;0.07;;;;;;;;;;5060244;28;20941;-63
2021/06/04 00:31:22;;;;;;;0.00;0.00;;;;;;;;;;5050558;28;20277;-63
2021/06/04 00:33:49;;;;;;;0.00;0.00;;;;;;;;;;5051799;28;20228;-67
2021/06/04 00:36:16;;;;;;;0.23;0.10;;;;;;;;;;5058859;28;20521;-66
2021/06/04 00:38:44;;;;;;;0.17;0.17;;;;;;;;;;5059653;28;20378;-70
2021/06/04 00:41:32;;;;;;;0.57;0.20;;;;;;;;;;5054782;28;20225;-70
2021/06/04 00:43:59;;;;;;;0.00;0.00;;;;;;;;;;5050195;28;20182;-71
2021/06/04 00:46:26;;;;;;;0.00;0.00;;;;;;;;;;5055228;28;20182;-70
2021/06/04 00:48:54;;;;;;;3.30;1.00;;;;;;;;;;5057920;28;20827;-69
2021/06/04 00:51:21;;;;;;;0.00;0.00;;;;;;;;;;5056565;28;20189;-70
2021/06/04 00:53:48;;;;;;;0.00;0.00;;;;;;;;;;5056007;28;20197;-72
2021/06/04 00:56:15;;;;;;;0.40;0.40;;;;;;;;;;5059117;28;20186;-70
2021/06/04 00:58:44;;;;;;;0.00;0.00;;;;;;;;;;5059911;28;20249;-69
2021/06/04 01:01:12;;;;;;;0.10;0.10;;;;;;;;;;5053916;28;20226;-68
2021/06/04 01:03:42;;;;;;;0.13;0.13;;;;;;;;;;5056707;28;20201;-69
2021/06/04 01:06:11;;;;;;;0.10;0.10;;;;;;;;;;5059363;28;20239;-69
2021/06/04 01:08:56;;;;;;;0.70;0.37;;;;;;;;;;5054353;28;20305;-70
2021/06/04 01:11:25;;;;;;;0.10;0.10;;;;;;;;;;5031688;28;20224;-68
2021/06/04 01:13:55;;;;;;;0.00;0.00;;;;;;;;;;5056041;28;20650;-67
2021/06/04 01:16:33;;;;;;;0.10;0.10;;;;;;;;;;5056818;28;20251;-69
2021/06/04 01:19:18;;;;;;;0.00;0.00;;;;;;;;;;5055814;28;20187;-68
2021/06/04 01:21:50;;;;;;;0.50;0.50;;;;;;;;;;5054730;28;21043;-68
2021/06/04 01:24:35;;;;;;;0.00;0.00;;;;;;;;;;5057029;28;20189;-68
2021/06/04 01:27:04;;;;;;;0.00;0.00;;;;;;;;;;5050770;28;20971;-69
2021/06/04 01:29:34;;;;;;;1.50;0.30;;;;;;;;;;5057038;28;20241;-68
2021/06/04 01:32:08;;;;;;;0.00;0.00;;;;;;;;;;5057971;28;20853;-69
2021/06/04 01:34:37;;;;;;;0.07;0.07;;;;;;;;;;5052829;28;20197;-69
2021/06/04 01:37:19;;;;;;;0.00;0.00;;;;;;;;;;5056733;28;20281;-69
2021/06/04 01:39:49;;;;;;;0.00;0.00;;;;;;;;;;5058544;28;20193;-69
2021/06/04 01:42:19;;;;;;;0.27;0.13;;;;;;;;;;5053583;28;20240;-69
2021/06/04 01:44:50;;;;;;;0.10;0.10;;;;;;;;;;5056303;28;20198;-68
2021/06/04 01:47:24;;;;;;;1.67;0.57;;;;;;;;;;5058121;28;20186;-69
2021/06/04 01:49:53;;;;;;;0.00;0.00;;;;;;;;;;5055712;28;20256;-68
2021/06/04 01:52:28;;;;;;;0.40;0.40;;;;;;;;;;5054445;28;20193;-68
2021/06/04 01:55:02;;;;;;;0.00;0.00;;;;;;;;;;5052477;28;21647;-68
2021/06/04 01:57:40;;;;;;;0.40;0.20;;;;;;;;;;5055575;28;20191;-69
2021/06/04 02:00:09;;;;;;;0.20;0.20;;;;;;;;;;5054321;28;20240;-70
2021/06/04 02:02:36;;;;;;;0.10;0.10;;;;;;;;;;5057622;28;20214;-69
2021/06/04 02:05:06;;;;;;;0.00;0.00;;;;;;;;;;5057521;28;20299;-68
2021/06/04 02:07:33;;;;;;;0.00;0.00;;;;;;;;;;5056710;28;20197;-69
2021/06/04 02:10:05;;;;;;;0.00;0.00;;;;;;;;;;5058959;28;20197;-68
2021/06/04 02:12:32;;;;;;;0.00;0.00;;;;;;;;;;5056462;28;20710;-69
2021/06/04 02:15:00;;;;;;;0.00;0.00;;;;;;;;;;5056865;28;20221;-69
2021/06/04 02:17:26;;;;;;;0.00;0.00;;;;;;;;;;5056321;28;20500;-69
2021/06/04 02:20:10;;;;;;;0.00;0.00;;;;;;;;;;5058833;28;20738;-69
2021/06/04 02:22:57;;;;;;;0.00;0.00;;;;;;;;;;5058632;28;20194;-68
2021/06/04 02:25:28;;;;;;;0.10;0.10;;;;;;;;;;5056327;28;20190;-68
2021/06/04 02:27:59;;;;;;;0.00;0.00;;;;;;;;;;5061094;28;20424;-68
2021/06/04 02:30:29;;;;;;;1.33;0.17;;;;;;;;;;5059209;28;20281;-69
2021/06/04 02:32:59;;;;;;;1.33;0.57;;;;;;;;;;5060642;28;20205;-68
2021/06/04 02:35:29;;;;;;;0.30;0.20;;;;;;;;;;5058980;28;20218;-68
2021/06/04 02:38:00;;;;;;;0.20;0.20;;;;;;;;;;5053100;28;20235;-69
2021/06/04 02:40:33;;;;;;;0.83;0.33;;;;;;;;;;5057680;28;20324;-68
2021/06/04 02:43:11;;;;;;;0.27;0.27;;;;;;;;;;5060036;28;20199;-68
2021/06/04 02:45:40;;;;;;;1.33;0.40;;;;;;;;;;5056807;28;20194;-68
2021/06/04 02:48:09;;;;;;;0.87;0.17;;;;;;;;;;5061666;28;20910;-70
2021/06/04 02:50:44;;;;;;;0.30;0.10;;;;;;;;;;5059150;28;20256;-68
2021/06/04 02:53:26;;;;;;;0.10;0.10;;;;;;;;;;5052274;28;20284;-69
2021/06/04 02:56:05;;;;;;;0.00;0.00;;;;;;;;;;5050701;28;20197;-68
2021/06/04 02:58:32;;;;;;;0.20;0.20;;;;;;;;;;5060739;28;20244;-68
2021/06/04 03:00:59;;;;;;;0.77;0.67;;;;;;;;;;5060423;28;20363;-68
2021/06/04 03:03:26;;;;;;;0.00;0.00;;;;;;;;;;5057465;28;20187;-68
2021/06/04 03:05:52;;;;;;;0.10;0.10;;;;;;;;;;5058812;28;20259;-66
2021/06/04 03:08:21;;;;;;;0.20;0.20;;;;;;;;;;5058420;28;20179;-68
2021/06/04 03:10:49;;;;;;;0.10;0.10;;;;;;;;;;5057748;28;21176;-68
2021/06/04 03:13:18;;;;;;;2.10;1.23;;;;;;;;;;5057477;28;20656;-68
2021/06/04 03:15:49;;;;;;;0.00;0.00;;;;;;;;;;5062490;28;20492;-67
2021/06/04 03:18:18;;;;;;;0.77;0.70;;;;;;;;;;5056761;28;20203;-68
2021/06/04 03:20:45;;;;;;;0.10;0.10;;;;;;;;;;5054389;28;20214;-68
2021/06/04 03:23:14;;;;;;;0.10;0.10;;;;;;;;;;5057187;28;20191;-68
2021/06/04 03:25:42;;;;;;;0.20;0.20;;;;;;;;;;5054553;28;20186;-68
2021/06/04 03:28:11;;;;;;;0.00;0.00;;;;;;;;;;5055091;28;20216;-67
2021/06/04 03:30:40;;;;;;;0.00;0.00;;;;;;;;;;5052693;28;20195;-68
2021/06/04 03:33:08;;;;;;;0.00;0.00;;;;;;;;;;5052293;28;20223;-68
2021/06/04 03:35:34;;;;;;;0.00;0.00;;;;;;;;;;5052930;28;20198;-66
2021/06/04 03:38:01;;;;;;;0.33;0.10;;;;;;;;;;5053413;28;20197;-68
2021/06/04 03:40:29;;;;;;;0.00;0.00;;;;;;;;;;5055759;28;20217;-68
2021/06/04 03:42:56;;;;;;;0.00;0.00;;;;;;;;;;5061055;28;20243;-67
2021/06/04 03:45:25;;;;;;;0.10;0.10;;;;;;;;;;5061343;28;20186;-68
2021/06/04 03:47:52;;;;;;;0.10;0.10;;;;;;;;;;5055399;28;20202;-67
2021/06/04 03:50:19;;;;;;;0.00;0.00;;;;;;;;;;5053687;28;20274;-68
2021/06/04 03:52:46;;;;;;;1.40;0.47;;;;;;;;;;5055167;28;20192;-68
2021/06/04 03:55:14;;;;;;;0.03;0.03;;;;;;;;;;5055923;28;20194;-68
2021/06/04 03:57:42;;;;;;;0.67;0.60;;;;;;;;;;5051767;28;20854;-68
2021/06/04 04:00:11;;;;;;;0.00;0.00;;;;;;;;;;5053484;28;20251;-68
2021/06/04 04:02:37;;;;;;;0.00;0.00;;;;;;;;;;5055423;28;20186;-68
2021/06/04 04:05:04;;;;;;;0.00;0.00;;;;;;;;;;5055296;28;20212;-69
2021/06/04 04:07:31;;;;;;;0.00;0.00;;;;;;;;;;5052056;28;20190;-69
2021/06/04 04:09:58;;;;;;;0.40;0.40;;;;;;;;;;5052306;28;20301;-68
2021/06/04 04:12:26;;;;;;;0.10;0.00;;;;;;;;;;5055418;28;20199;-69
2021/06/04 04:14:53;;;;;;;0.00;0.00;;;;;;;;;;5059651;28;20256;-69
2021/06/04 04:17:23;;;;;;;0.50;0.50;;;;;;;;;;5050930;28;20189;-69
2021/06/04 04:19:50;;;;;;;0.00;0.00;;;;;;;;;;5052632;28;20194;-68
2021/06/04 04:22:17;;;;;;;0.00;0.00;;;;;;;;;;5051903;28;20602;-69
2021/06/04 04:24:44;;;;;;;0.00;0.00;;;;;;;;;;5054948;28;20186;-69
2021/06/04 04:27:11;;;;;;;0.10;0.10;;;;;;;;;;5053098;28;21800;-67
2021/06/04 04:29:38;;;;;;;1.50;1.40;;;;;;;;;;5051122;28;20559;-67
2021/06/04 04:32:11;;;;;;;0.20;0.10;;;;;;;;;;5053753;28;20281;-68
2021/06/04 04:34:38;;;;;;;0.10;0.10;;;;;;;;;;5053350;28;20206;-67
2021/06/04 04:37:04;;;;;;;0.00;0.00;;;;;;;;;;5055374;28;20198;-67
2021/06/04 04:39:33;;;;;;;0.00;0.00;;;;;;;;;;5052214;28;20190;-67
2021/06/04 04:42:00;;;;;;;0.10;0.10;;;;;;;;;;5053428;28;20531;-67
2021/06/04 04:44:31;;;;;;;0.00;0.00;;;;;;;;;;5054530;28;20190;-68
2021/06/04 04:46:58;;;;;;;0.00;0.00;;;;;;;;;;5057094;28;20186;-68
2021/06/04 04:49:25;;;;;;;0.00;0.00;;;;;;;;;;5049599;28;20428;-68
2021/06/04 04:51:52;;;;;;;0.10;0.10;;;;;;;;;;5048948;28;20201;-68
2021/06/04 04:54:19;;;;;;;0.00;0.00;;;;;;;;;;5052617;28;20304;-67
2021/06/04 04:56:48;;;;;;;0.00;0.00;;;;;;;;;;5051116;28;20189;-68
2021/06/04 04:59:15;;;;;;;0.00;0.00;;;;;;;;;;5051907;28;20222;-67
2021/06/04 05:01:42;;;;;;;0.00;0.00;;;;;;;;;;5048445;28;20716;-68
2021/06/04 13:28:19;;;;;;;0.30;0.23;;;;;;;;;;5036742;28;20654;-59
2021/06/04 13:30:49;;;;;;;0.23;0.23;;;;;;;;;;5029607;28;20190;-60
2021/06/04 13:33:22;;;;;;;0.30;0.27;;;;;;;;;;5035854;28;20229;-59
2021/06/04 13:35:50;;;;;;;0.47;0.47;;;;;;;;;;5035234;28;20180;-61
2021/06/04 13:38:31;;;;;;;0.00;0.00;;;;;;;;;;5035545;28;20218;-60
2021/06/04 13:41:04;;;;;;;0.87;0.57;;;;;;;;;;5035619;28;20194;-61
2021/06/04 13:43:37;;;;;;;0.43;0.37;;;;;;;;;;5035922;28;20209;-61
2021/06/04 13:46:04;;;;;;;3.00;0.20;;;;;;;;;;5035399;28;20744;-61
2021/06/04 13:48:32;;;;;;;0.40;0.17;;;;;;;;;;5035347;28;20277;-61
2021/06/04 13:51:08;;;;;;;0.00;0.00;;;;;;;;;;5035604;28;20271;-61
2021/06/04 13:53:41;;;;;;;0.77;0.10;;;;;;;;;;5035504;28;20226;-61
2021/06/04 13:56:09;;;;;;;2.73;0.50;;;;;;;;;;5035534;28;20311;-61
2021/06/04 13:58:39;;;;;;;0.00;0.00;;;;;;;;;;5033878;28;20190;-61
2021/06/04 14:01:13;;;;;;;1.13;0.57;;;;;;;;;;5035171;28;20654;-60
2021/06/04 14:03:42;;;;;;;1.27;0.50;;;;;;;;;;5035302;28;20596;-61
2021/06/04 14:06:29;;;;;;;5.53;1.33;;;;;;;;;;5035271;28;20649;-61
2021/06/04 14:09:05;;;;;;;2.77;0.43;;;;;;;;;;5034971;28;20592;-61
2021/06/04 14:11:36;;;;;;;3.60;0.77;;;;;;;;;;5035113;28;20189;-61
2021/06/04 14:14:10;;;;;;;1.10;0.37;;;;;;;;;;5034694;28;20331;-61
2021/06/04 14:16:50;;;;;;;0.67;0.67;;;;;;;;;;5028866;28;20195;-61
2021/06/04 14:19:35;;;;;;;0.00;0.00;;;;;;;;;;5034594;28;20192;-61
2021/06/04 14:22:07;;;;;;;7.73;0.70;;;;;;;;;;5034403;28;20205;-60
2021/06/04 14:24:48;;;;;;;0.20;0.20;;;;;;;;;;5034420;28;20596;-61
2021/06/04 14:27:27;;;;;;;4.47;1.10;;;;;;;;;;5028530;28;20260;-61
2021/06/04 14:29:58;;;;;;;2.20;0.50;;;;;;;;;;5035059;28;20180;-61
2021/06/04 14:32:24;;;;;;;0.00;0.00;;;;;;;;;;5034632;28;20212;-62
2021/06/04 14:35:03;;;;;;;2.40;1.80;;;;;;;;;;5034039;28;20186;-61
2021/06/04 14:37:35;;;;;;;6.87;3.23;;;;;;;;;;5032494;28;20556;-62
2021/06/04 14:40:17;;;;;;;2.47;1.10;;;;;;;;;;5020167;28;20189;-61
2021/06/04 14:42:43;;;;;;;1.03;0.43;;;;;;;;;;5020577;28;20292;-62
2021/06/04 14:45:11;;;;;;;5.43;0.80;;;;;;;;;;5020818;28;20180;-62
2021/06/04 14:47:40;;;;;;;2.10;1.00;;;;;;;;;;5020748;28;20431;-61
2021/06/04 14:50:12;;;;;;;1.07;1.03;;;;;;;;;;5014487;28;20187;-62
2021/06/04 14:52:39;;;;;;;0.07;0.07;;;;;;;;;;5016629;28;20760;-62
2021/06/04 14:55:06;;;;;;;0.00;0.00;;;;;;;;;;5020647;28;20189;-62
2021/06/04 14:57:32;;;;;;;0.47;0.13;;;;;;;;;;5020299;28;20211;-62
2021/06/04 15:00:01;;;;;;;0.40;0.30;;;;;;;;;;5020629;28;20193;-62
2021/06/04 15:02:28;;;;;;;0.10;0.10;;;;;;;;;;5020613;28;20228;-62
2021/06/04 15:04:55;;;;;;;20.90;1.33;;;;;;;;;;5020793;28;20189;-62
2021/06/04 15:07:25;;;;;;;15.70;0.97;;;;;;;;;;5020515;28;20265;-61
2021/06/04 15:09:52;;;;;;;2.80;1.90;;;;;;;;;;5020456;28;20671;-62
2021/06/04 15:12:20;;;;;;;1.40;0.47;;;;;;;;;;5020601;28;20188;-62
2021/06/04 15:14:47;;;;;;;0.90;0.90;;;;;;;;;;5020312;28;20189;-62
2021/06/04 15:17:14;;;;;;;0.00;0.00;;;;;;;;;;5020986;28;20239;-62
2021/06/04 15:19:40;;;;;;;0.00;0.00;;;;;;;;;;5020373;28;20741;-61
2021/06/04 15:22:07;;;;;;;0.00;0.00;;;;;;;;;;5020156;28;20573;-62
2021/06/04 15:24:34;;;;;;;0.20;0.20;;;;;;;;;;5019881;28;20755;-62
2021/06/04 15:27:07;;;;;;;0.40;0.30;;;;;;;;;;5019659;28;20247;-62
2021/06/04 15:29:34;;;;;;;0.00;0.00;;;;;;;;;;5020068;28;20191;-62
2021/06/04 15:32:01;;;;;;;0.20;0.20;;;;;;;;;;5020348;28;20362;-62
2021/06/04 15:34:33;;;;;;;9.10;0.50;;;;;;;;;;5020254;28;20184;-62
2021/06/04 15:36:59;;;;;;;1.30;0.60;;;;;;;;;;5019859;28;20200;-62
2021/06/04 15:39:26;;;;;;;0.53;0.30;;;;;;;;;;5019839;28;20930;-62
2021/06/04 15:41:54;;;;;;;0.23;0.20;;;;;;;;;;5020287;28;20335;-62
2021/06/04 15:44:21;;;;;;;2.37;0.90;;;;;;;;;;5019745;28;20213;-62
2021/06/04 15:46:48;;;;;;;13.07;1.70;;;;;;;;;;5019885;28;20375;-62
2021/06/04 15:49:14;;;;;;;0.10;0.10;;;;;;;;;;5019415;28;20193;-63
2021/06/04 15:51:42;;;;;;;0.00;0.00;;;;;;;;;;5019316;28;20189;-62
2021/06/04 15:54:09;;;;;;;5.60;0.37;;;;;;;;;;5019790;28;20260;-62
2021/06/04 15:56:36;;;;;;;0.93;0.10;;;;;;;;;;5019524;28;20193;-62
2021/06/04 15:59:03;;;;;;;1.23;0.20;;;;;;;;;;5019519;28;20425;-62
2021/06/04 16:01:34;;;;;;;0.53;0.20;;;;;;;;;;5019434;28;20192;-62
2021/06/04 16:04:01;;;;;;;0.00;0.00;;;;;;;;;;5019693;28;20545;-62
2021/06/04 16:06:32;;;;;;;0.20;0.10;;;;;;;;;;5019424;28;20204;-62
2021/06/04 16:08:59;;;;;;;0.00;0.00;;;;;;;;;;5019502;28;20188;-62
2021/06/04 16:11:25;;;;;;;3.73;0.47;;;;;;;;;;5018894;28;20269;-62
2021/06/04 16:13:52;;;;;;;0.00;0.00;;;;;;;;;;5019265;28;20202;-62
2021/06/04 16:16:19;;;;;;;3.83;0.40;;;;;;;;;;5019024;28;20188;-62
2021/06/04 16:18:46;;;;;;;2.93;0.77;;;;;;;;;;5018820;28;20853;-62
2021/06/04 16:21:13;;;;;;;0.27;0.27;;;;;;;;;;5018758;28;20189;-62
2021/06/04 16:23:39;;;;;;;2.87;0.87;;;;;;;;;;5018925;28;20180;-62
2021/06/04 16:26:09;;;;;;;0.93;0.20;;;;;;;;;;5018330;28;20229;-61
2021/06/04 16:28:35;;;;;;;0.60;0.50;;;;;;;;;;5018785;28;20192;-62
2021/06/04 16:31:04;;;;;;;0.20;0.20;;;;;;;;;;5018919;28;20273;-62
2021/06/04 16:33:33;;;;;;;0.20;0.13;;;;;;;;;;5018993;28;20195;-62
2021/06/04 16:35:59;;;;;;;6.13;3.13;;;;;;;;;;5018551;28;20255;-62
2021/06/04 16:38:27;;;;;;;2.20;0.27;;;;;;;;;;5018812;28;20264;-62
2021/06/04 16:40:53;;;;;;;0.37;0.00;;;;;;;;;;5018553;28;20188;-62
2021/06/04 16:43:20;;;;;;;5.87;0.43;;;;;;;;;;5018450;28;20180;-62
2021/06/04 16:45:47;;;;;;;0.00;0.00;;;;;;;;;;5018726;28;20744;-62
2021/06/04 16:48:14;;;;;;;0.23;0.23;;;;;;;;;;5017920;28;20207;-62
2021/06/04 16:50:41;;;;;;;0.00;0.00;;;;;;;;;;5015902;28;20418;-62
2021/06/04 16:53:07;;;;;;;0.77;0.50;;;;;;;;;;5018453;28;20184;-62
2021/06/04 16:55:35;;;;;;;2.70;0.50;;;;;;;;;;5018415;28;20232;-62
2021/06/04 16:58:04;;;;;;;0.00;0.00;;;;;;;;;;5018320;28;20561;-63
2021/06/04 17:00:32;;;;;;;0.00;0.00;;;;;;;;;;5017770;28;20234;-62
2021/06/04 17:02:59;;;;;;;0.00;0.00;;;;;;;;;;5018388;28;20285;-63
2021/06/04 17:05:26;;;;;;;1.30;0.37;;;;;;;;;;5017988;28;20826;-62
2021/06/04 17:07:52;;;;;;;2.90;0.30;;;;;;;;;;5018489;28;20200;-62
2021/06/04 17:10:20;;;;;;;4.07;0.83;;;;;;;;;;5017957;28;20271;-62
2021/06/04 17:12:46;;;;;;;0.00;0.00;;;;;;;;;;5018136;28;20961;-62
2021/06/04 17:15:14;;;;;;;0.43;0.17;;;;;;;;;;5018308;28;20270;-62
2021/06/04 17:17:41;;;;;;;6.33;1.80;;;;;;;;;;5018356;28;20197;-63
2021/06/04 17:20:09;;;;;;;7.57;0.70;;;;;;;;;;5018314;28;20279;-63
2021/06/04 17:22:36;;;;;;;1.80;0.20;;;;;;;;;;5018668;28;20817;-62
2021/06/04 17:25:03;;;;;;;1.03;0.83;;;;;;;;;;5018024;28;20658;-62
2021/06/04 17:27:30;;;;;;;0.13;0.13;;;;;;;;;;5017887;28;20454;-62
2021/06/04 17:29:56;;;;;;;4.03;1.10;;;;;;;;;;5018164;28;20819;-63
2021/06/04 17:32:23;;;;;;;0.57;0.43;;;;;;;;;;5018078;28;20184;-63
2021/06/04 17:34:50;;;;;;;1.90;1.20;;;;;;;;;;5017699;28;20172;-63
2021/06/04 17:37:16;;;;;;;0.07;0.07;;;;;;;;;;5017525;28;20927;-63
2021/06/04 17:39:43;;;;;;;0.00;0.00;;;;;;;;;;5017688;28;20185;-62
2021/06/04 17:42:10;;;;;;;0.30;0.30;;;;;;;;;;5017735;28;20189;-63
2021/06/04 17:44:37;;;;;;;1.60;0.43;;;;;;;;;;5018147;28;20180;-63
2021/06/04 17:47:04;;;;;;;0.63;0.60;;;;;;;;;;5017817;28;20242;-62
2021/06/04 17:49:30;;;;;;;3.83;1.40;;;;;;;;;;5017804;28;20245;-62
2021/06/04 17:51:57;;;;;;;0.10;0.10;;;;;;;;;;5017994;28;20201;-63
2021/06/04 17:54:24;;;;;;;0.20;0.20;;;;;;;;;;5017837;28;20184;-63
2021/06/04 17:56:50;;;;;;;6.50;0.27;;;;;;;;;;5017524;28;20313;-62
2021/06/04 17:59:17;;;;;;;2.33;0.20;;;;;;;;;;5017535;28;20189;-62
2021/06/04 18:01:44;;;;;;;0.00;0.00;;;;;;;;;;5018383;28;20188;-62
2021/06/04 18:04:12;;;;;;;0.00;0.00;;;;;;;;;;5017794;28;20188;-63
2021/06/04 18:06:38;;;;;;;1.20;0.40;;;;;;;;;;5016441;28;20209;-63
2021/06/04 18:09:06;;;;;;;0.60;0.53;;;;;;;;;;5017955;28;20195;-62
2021/06/04 18:11:34;;;;;;;0.50;0.10;;;;;;;;;;5017865;28;20189;-63
2021/06/04 18:14:00;;;;;;;0.27;0.27;;;;;;;;;;5019829;28;20775;-64
2021/06/04 18:16:27;;;;;;;1.10;1.10;;;;;;;;;;5021468;28;20192;-63
2021/06/04 18:18:54;;;;;;;0.93;0.13;;;;;;;;;;5021678;28;20192;-63
2021/06/04 18:21:21;;;;;;;1.33;0.53;;;;;;;;;;5021130;28;20677;-63
2021/06/04 18:23:48;;;;;;;0.10;0.10;;;;;;;;;;5021274;28;20188;-63
2021/06/04 18:26:15;;;;;;;3.30;1.90;;;;;;;;;;5020379;28;20225;-63
2021/06/04 18:28:45;;;;;;;0.00;0.00;;;;;;;;;;5021183;28;20790;-63
2021/06/04 18:31:13;;;;;;;1.13;0.43;;;;;;;;;;5021093;28;20188;-63
2021/06/04 18:33:40;;;;;;;0.40;0.20;;;;;;;;;;5020693;28;20283;-63
2021/06/04 18:36:08;;;;;;;0.00;0.00;;;;;;;;;;5021384;28;20204;-63
2021/06/04 18:38:34;;;;;;;6.93;0.50;;;;;;;;;;5021256;28;20303;-63
2021/06/04 18:41:01;;;;;;;0.10;0.03;;;;;;;;;;5020770;28;20208;-62
2021/06/04 18:43:30;;;;;;;0.13;0.00;;;;;;;;;;5021009;28;20211;-63
2021/06/04 18:45:57;;;;;;;0.93;0.33;;;;;;;;;;5020884;28;20188;-62
2021/06/04 18:48:24;;;;;;;0.10;0.07;;;;;;;;;;5020517;28;20295;-63
2021/06/04 18:50:51;;;;;;;0.37;0.27;;;;;;;;;;5020386;28;20183;-64
2021/06/04 18:53:20;;;;;;;0.30;0.30;;;;;;;;;;5020128;28;20257;-63
2021/06/04 18:55:47;;;;;;;1.20;0.20;;;;;;;;;;5020337;28;20579;-64
2021/06/04 18:58:14;;;;;;;3.30;1.03;;;;;;;;;;5020842;28;20991;-63
2021/06/04 19:00:42;;;;;;;2.17;0.50;;;;;;;;;;5020773;28;20549;-63
2021/06/04 19:03:10;;;;;;;3.20;0.43;;;;;;;;;;5020936;28;20307;-63
2021/06/04 19:05:36;;;;;;;4.27;0.23;;;;;;;;;;5020706;28;20413;-63
2021/06/04 19:08:03;;;;;;;2.43;1.90;;;;;;;;;;5020449;28;20391;-63
2021/06/04 19:10:31;;;;;;;1.90;0.17;;;;;;;;;;5019898;28;20680;-63
2021/06/04 19:12:58;;;;;;;1.07;0.73;;;;;;;;;;5020220;28;20733;-62
2021/06/04 19:15:26;;;;;;;0.00;0.00;;;;;;;;;;5020423;28;20188;-63
2021/06/04 19:17:52;;;;;;;1.57;1.30;;;;;;;;;;5020247;28;20191;-62
2021/06/04 19:20:21;;;;;;;1.70;0.30;;;;;;;;;;5020495;28;20700;-63
2021/06/04 19:22:47;;;;;;;1.07;0.30;;;;;;;;;;5020497;28;20550;-62
2021/06/04 19:25:15;;;;;;;0.13;0.00;;;;;;;;;;5019946;28;20265;-63
2021/06/04 19:27:42;;;;;;;0.97;0.30;;;;;;;;;;5020141;28;20229;-63
2021/06/04 19:30:10;;;;;;;0.00;0.00;;;;;;;;;;5020213;28;20214;-63
2021/06/04 19:32:36;;;;;;;0.00;0.00;;;;;;;;;;5020177;28;20296;-63
2021/06/04 19:35:04;;;;;;;1.50;0.20;;;;;;;;;;5019796;28;20181;-63
2021/06/04 19:37:30;;;;;;;0.00;0.00;;;;;;;;;;5020164;28;20200;-62
2021/06/04 19:39:57;;;;;;;1.23;1.13;;;;;;;;;;5019794;28;20188;-63
2021/06/04 19:42:23;;;;;;;0.30;0.30;;;;;;;;;;5019948;28;20205;-64
2021/06/04 19:44:50;;;;;;;0.67;0.23;;;;;;;;;;5019834;28;20824;-62
2021/06/04 19:47:18;;;;;;;1.07;0.20;;;;;;;;;;5019421;28;20343;-63
2021/06/04 19:49:45;;;;;;;0.93;0.57;;;;;;;;;;5019968;28;20190;-62
2021/06/04 19:52:12;;;;;;;1.63;0.27;;;;;;;;;;5020389;28;20239;-62
2021/06/04 19:54:40;;;;;;;0.70;0.20;;;;;;;;;;5019676;28;20199;-62
2021/06/04 19:57:07;;;;;;;0.30;0.30;;;;;;;;;;5019423;28;20609;-63
2021/06/04 19:59:34;;;;;;;0.30;0.10;;;;;;;;;;5019719;28;20185;-63
2021/06/04 20:02:01;;;;;;;0.10;0.10;;;;;;;;;;5019757;28;20195;-62
2021/06/04 20:04:28;;;;;;;2.77;1.60;;;;;;;;;;5019538;28;20193;-62
2021/06/04 20:06:55;;;;;;;2.87;0.57;;;;;;;;;;5019577;28;20204;-62
2021/06/04 20:09:21;;;;;;;1.60;1.23;;;;;;;;;;5019401;28;20201;-63
2021/06/04 20:11:48;;;;;;;0.00;0.00;;;;;;;;;;5019434;28;20180;-63
2021/06/04 20:14:15;;;;;;;2.43;0.63;;;;;;;;;;5019458;28;20212;-62
2021/06/04 20:16:42;;;;;;;3.13;0.33;;;;;;;;;;5019282;28;20189;-62
2021/06/04 20:19:09;;;;;;;8.83;1.10;;;;;;;;;;5019284;28;20685;-63
2021/06/04 20:21:37;;;;;;;0.00;0.00;;;;;;;;;;5019424;28;20559;-62
2021/06/04 20:24:04;;;;;;;0.00;0.00;;;;;;;;;;5019372;28;20189;-62
2021/06/04 20:26:31;;;;;;;0.87;0.10;;;;;;;;;;5018780;28;20227;-62
2021/06/04 20:28:59;;;;;;;13.47;4.90;;;;;;;;;;5019490;28;20546;-63
2021/06/04 20:31:26;;;;;;;2.33;1.10;;;;;;;;;;5019092;28;20268;-62
2021/06/04 20:33:53;;;;;;;8.30;0.60;;;;;;;;;;5019505;28;20463;-63
2021/06/04 20:36:21;;;;;;;0.10;0.10;;;;;;;;;;5017797;28;20601;-63
2021/06/04 20:38:48;;;;;;;0.00;0.00;;;;;;;;;;5018855;28;20717;-63
2021/06/04 20:41:16;;;;;;;2.30;2.20;;;;;;;;;;5018439;28;20283;-63
2021/06/04 20:43:44;;;;;;;1.90;0.20;;;;;;;;;;5018985;28;20188;-63
2021/06/04 20:46:11;;;;;;;0.00;0.00;;;;;;;;;;5018768;28;20188;-63
2021/06/04 20:48:39;;;;;;;0.33;0.33;;;;;;;;;;5018722;28;20677;-63
2021/06/04 20:51:09;;;;;;;0.93;0.20;;;;;;;;;;5018513;28;20577;-63
2021/06/04 20:53:53;;;;;;;1.80;0.43;;;;;;;;;;5018640;28;20207;-62
2021/06/04 20:56:21;;;;;;;3.00;0.23;;;;;;;;;;5017992;28;20184;-62
2021/06/04 20:58:47;;;;;;;1.27;0.33;;;;;;;;;;5018140;28;20194;-62
2021/06/04 21:01:14;;;;;;;1.60;0.60;;;;;;;;;;5018521;28;20182;-62
2021/06/04 21:03:41;;;;;;;0.00;0.00;;;;;;;;;;5018858;28;20188;-62
2021/06/04 21:06:09;;;;;;;0.23;0.23;;;;;;;;;;5018893;28;20267;-62
2021/06/04 21:08:40;;;;;;;0.17;0.17;;;;;;;;;;5017628;28;20197;-62
2021/06/04 21:11:11;;;;;;;0.03;0.03;;;;;;;;;;5018300;28;20222;-62
2021/06/04 21:13:40;;;;;;;0.50;0.50;;;;;;;;;;5018522;28;20267;-62
2021/06/04 21:16:07;;;;;;;7.13;0.93;;;;;;;;;;5015960;28;20191;-62
2021/06/04 21:18:34;;;;;;;1.97;0.70;;;;;;;;;;5014405;28;20212;-63
2021/06/04 21:21:03;;;;;;;1.67;1.27;;;;;;;;;;5014083;28;20346;-62
2021/06/04 21:23:32;;;;;;;0.10;0.10;;;;;;;;;;5017327;28;20834;-62
2021/06/04 21:25:59;;;;;;;0.03;0.03;;;;;;;;;;5016785;28;20287;-62
2021/06/04 21:28:26;;;;;;;0.00;0.00;;;;;;;;;;5018048;28;20662;-62
2021/06/04 21:30:53;;;;;;;2.53;0.83;;;;;;;;;;5016718;28;20222;-61
2021/06/04 21:33:27;;;;;;;0.30;0.30;;;;;;;;;;5014717;28;20184;-63
2021/06/04 21:35:54;;;;;;;0.00;0.00;;;;;;;;;;5019791;28;20184;-62
2021/06/04 21:38:21;;;;;;;0.17;0.00;;;;;;;;;;5017849;28;20274;-62
2021/06/04 21:40:48;;;;;;;2.43;1.23;;;;;;;;;;5016372;28;20195;-62
2021/06/04 21:43:16;;;;;;;0.10;0.10;;;;;;;;;;5015762;28;20760;-62
2021/06/04 21:45:43;;;;;;;0.10;0.10;;;;;;;;;;5017388;28;20386;-61
2021/06/04 21:48:10;;;;;;;3.37;0.60;;;;;;;;;;5017482;28;20286;-62
2021/06/04 21:50:37;;;;;;;0.87;0.13;;;;;;;;;;5022766;28;20196;-62
2021/06/04 21:53:05;;;;;;;0.47;0.27;;;;;;;;;;5019322;28;20184;-62
2021/06/04 21:55:33;;;;;;;0.40;0.40;;;;;;;;;;5018541;28;20195;-62
2021/06/04 21:58:02;;;;;;;0.33;0.33;;;;;;;;;;5022340;28;20192;-63
2021/06/04 22:00:33;;;;;;;0.00;0.00;;;;;;;;;;5020825;28;20205;-62
2021/06/04 22:03:00;;;;;;;1.50;1.23;;;;;;;;;;5018516;28;20191;-63
2021/06/04 22:05:27;;;;;;;0.10;0.10;;;;;;;;;;5019048;28;20740;-63
2021/06/04 22:07:59;;;;;;;5.17;1.03;;;;;;;;;;5023755;28;20654;-63
2021/06/04 22:10:29;;;;;;;0.00;0.00;;;;;;;;;;5018064;28;20188;-63
2021/06/04 22:12:56;;;;;;;2.33;0.30;;;;;;;;;;5019957;28;20187;-63
2021/06/04 22:15:23;;;;;;;2.27;0.60;;;;;;;;;;5018710;28;20184;-64
2021/06/04 22:17:50;;;;;;;2.00;0.90;;;;;;;;;;5017873;28;20533;-63
2021/06/04 22:20:22;;;;;;;0.63;0.40;;;;;;;;;;5022619;28;20515;-63
2021/06/04 22:22:50;;;;;;;1.60;1.20;;;;;;;;;;5022616;28;20274;-63
2021/06/04 22:25:19;;;;;;;3.70;0.37;;;;;;;;;;5021726;28;20203;-63
2021/06/04 22:27:45;;;;;;;0.10;0.10;;;;;;;;;;5021589;28;20227;-63
2021/06/04 22:30:16;;;;;;;0.30;0.13;;;;;;;;;;5019950;28;20359;-63
2021/06/04 22:32:43;;;;;;;1.80;0.20;;;;;;;;;;5019841;28;20598;-61
2021/06/04 22:35:11;;;;;;;0.93;0.60;;;;;;;;;;5020061;28;20188;-64
2021/06/04 22:37:38;;;;;;;0.87;0.53;;;;;;;;;;5017541;28;20281;-63
2021/06/04 22:40:09;;;;;;;0.20;0.20;;;;;;;;;;5020063;28;20195;-64
2021/06/04 22:42:35;;;;;;;0.63;0.20;;;;;;;;;;5038003;28;20190;-64
2021/06/04 22:45:04;;;;;;;0.00;0.00;;;;;;;;;;5023726;28;20187;-64
2021/06/04 22:47:31;;;;;;;1.40;0.50;;;;;;;;;;5018199;28;20208;-62
2021/06/04 22:49:57;;;;;;;9.03;1.90;;;;;;;;;;5019512;28;20188;-62
2021/06/04 22:52:24;;;;;;;0.00;0.00;;;;;;;;;;5022721;28;20183;-61
2021/06/04 22:54:51;;;;;;;0.07;0.07;;;;;;;;;;5018505;28;20719;-60
2021/06/04 22:57:19;;;;;;;0.10;0.10;;;;;;;;;;5019146;28;20186;-60
2021/06/04 22:59:46;;;;;;;0.10;0.10;;;;;;;;;;5015044;28;20213;-61
2021/06/04 23:02:13;;;;;;;0.87;0.20;;;;;;;;;;5015031;28;20195;-61
2021/06/04 23:04:39;;;;;;;0.83;0.77;;;;;;;;;;5016461;28;20740;-61
2021/06/04 23:07:06;;;;;;;0.00;0.00;;;;;;;;;;5017443;28;20642;-62
2021/06/04 23:09:32;;;;;;;1.50;0.30;;;;;;;;;;5015265;28;20295;-60
2021/06/04 23:11:59;;;;;;;7.03;1.70;;;;;;;;;;5017004;28;20436;-63
2021/06/04 23:14:27;;;;;;;0.40;0.10;;;;;;;;;;5023728;28;20953;-61
2021/06/04 23:16:54;;;;;;;2.93;1.30;;;;;;;;;;5015031;28;21023;-62